Zabaykal'sk, Russia
Current Conditions -  °F | °C
As of 8:30 AM on Sunday 21 Dec 2014 (Local Time) from UIAA Reporting Station
Few Clouds Few Clouds  
Wind Chill: -10°   Ceiling: Unl
Heat Index:   Visibility: 6mi
Dew Point: -2°   Wind: 4mph
Humidity: 92%   Direction: NA
Pressure: 29.85"   Gusts: NA
Location:  49.66°N, 117.31°E
Report Text: UIAA 202330Z VRB02MPS 9999 FEW100 M18/M19 Q1011 NOSIG RMKQFE700 29390050
Loading
Personal Weather Stations






























Interactive Weather Map New forecast layout! Learn more

10-Day Weather Forecast

Advertisements
Track Severe Weather on mobile